sensor_id;sensor_type;location;lat;lon;timestamp;pressure;altitude;pressure_sealevel;temperature;humidity
22104;BME280;11218;48.886;9.426;2023-01-26T00:02:20;98590.88;;;1.40;90.95
22104;BME280;11218;48.886;9.426;2023-01-26T00:04:48;98598.47;;;1.43;91.57
22104;BME280;11218;48.886;9.426;2023-01-26T00:07:17;98595.91;;;1.50;91.41
22104;BME280;11218;48.886;9.426;2023-01-26T00:09:45;98597.47;;;1.44;91.00
22104;BME280;11218;48.886;9.426;2023-01-26T00:12:14;98593.72;;;1.39;91.25
22104;BME280;11218;48.886;9.426;2023-01-26T00:14:42;98594.88;;;1.36;91.64
22104;BME280;11218;48.886;9.426;2023-01-26T00:17:20;98586.59;;;1.39;91.59
22104;BME280;11218;48.886;9.426;2023-01-26T00:19:56;98582.94;;;1.40;92.25
22104;BME280;11218;48.886;9.426;2023-01-26T00:22:25;98580.09;;;1.42;91.70
22104;BME280;11218;48.886;9.426;2023-01-26T00:24:54;98573.22;;;1.33;91.54
22104;BME280;11218;48.886;9.426;2023-01-26T00:27:22;98571.19;;;1.35;91.65
22104;BME280;11218;48.886;9.426;2023-01-26T00:29:50;98562.44;;;1.34;92.00
22104;BME280;11218;48.886;9.426;2023-01-26T00:32:20;98549.00;;;1.36;92.64
22104;BME280;11218;48.886;9.426;2023-01-26T00:34:48;98559.25;;;1.39;92.52
22104;BME280;11218;48.886;9.426;2023-01-26T00:37:17;98556.75;;;1.37;92.24
22104;BME280;11218;48.886;9.426;2023-01-26T00:39:45;98555.59;;;1.40;91.51
22104;BME280;11218;48.886;9.426;2023-01-26T00:42:12;98542.97;;;1.42;91.70
22104;BME280;11218;48.886;9.426;2023-01-26T00:44:41;98541.03;;;1.36;91.98
22104;BME280;11218;48.886;9.426;2023-01-26T00:47:11;98535.97;;;1.26;92.28
22104;BME280;11218;48.886;9.426;2023-01-26T00:49:40;98535.78;;;1.27;91.92
22104;BME280;11218;48.886;9.426;2023-01-26T00:52:10;98538.44;;;1.27;92.70
22104;BME280;11218;48.886;9.426;2023-01-26T00:54:38;98542.31;;;1.40;92.70
22104;BME280;11218;48.886;9.426;2023-01-26T00:57:06;98539.56;;;1.33;91.99
22104;BME280;11218;48.886;9.426;2023-01-26T00:59:36;98537.50;;;1.20;92.79
22104;BME280;11218;48.886;9.426;2023-01-26T01:02:04;98539.88;;;1.15;92.87
22104;BME280;11218;48.886;9.426;2023-01-26T01:04:32;98534.75;;;1.14;92.81
22104;BME280;11218;48.886;9.426;2023-01-26T01:07:02;98529.25;;;1.15;93.73
22104;BME280;11218;48.886;9.426;2023-01-26T01:09:30;98529.09;;;1.17;94.46
22104;BME280;11218;48.886;9.426;2023-01-26T01:11:58;98528.09;;;1.18;93.81
22104;BME280;11218;48.886;9.426;2023-01-26T01:14:27;98530.56;;;1.19;94.39
22104;BME280;11218;48.886;9.426;2023-01-26T01:16:55;98531.69;;;1.25;93.81
22104;BME280;11218;48.886;9.426;2023-01-26T01:19:24;98532.84;;;1.22;93.14
22104;BME280;11218;48.886;9.426;2023-01-26T01:21:53;98530.09;;;1.16;93.21
22104;BME280;11218;48.886;9.426;2023-01-26T01:24:23;98531.72;;;1.17;94.00
22104;BME280;11218;48.886;9.426;2023-01-26T01:26:51;98532.69;;;1.24;94.30
22104;BME280;11218;48.886;9.426;2023-01-26T01:29:19;98536.97;;;1.25;93.37
22104;BME280;11218;48.886;9.426;2023-01-26T01:31:47;98524.06;;;1.22;92.76
22104;BME280;11218;48.886;9.426;2023-01-26T01:34:15;98527.44;;;1.16;93.08
22104;BME280;11218;48.886;9.426;2023-01-26T01:36:43;98518.47;;;1.17;93.89
22104;BME280;11218;48.886;9.426;2023-01-26T01:39:11;98520.78;;;1.20;94.29
22104;BME280;11218;48.886;9.426;2023-01-26T01:41:41;98512.88;;;1.12;93.26
22104;BME280;11218;48.886;9.426;2023-01-26T01:44:12;98517.19;;;1.13;93.79
22104;BME280;11218;48.886;9.426;2023-01-26T01:46:45;98513.72;;;1.12;94.57
22104;BME280;11218;48.886;9.426;2023-01-26T01:49:17;98513.53;;;1.14;94.05
22104;BME280;11218;48.886;9.426;2023-01-26T01:51:51;98511.53;;;1.16;94.18
22104;BME280;11218;48.886;9.426;2023-01-26T01:54:27;98509.53;;;1.18;94.46
22104;BME280;11218;48.886;9.426;2023-01-26T01:56:59;98508.22;;;1.14;94.05
22104;BME280;11218;48.886;9.426;2023-01-26T01:59:29;98504.28;;;1.10;94.06
22104;BME280;11218;48.886;9.426;2023-01-26T02:01:58;98510.72;;;1.15;94.43
22104;BME280;11218;48.886;9.426;2023-01-26T02:04:27;98495.97;;;1.13;93.68
22104;BME280;11218;48.886;9.426;2023-01-26T02:06:57;98504.94;;;1.12;93.37
22104;BME280;11218;48.886;9.426;2023-01-26T02:09:32;98495.81;;;1.14;92.40
22104;BME280;11218;48.886;9.426;2023-01-26T02:12:22;98503.53;;;1.01;92.23
22104;BME280;11218;48.886;9.426;2023-01-26T02:14:52;98502.41;;;0.95;93.13
22104;BME280;11218;48.886;9.426;2023-01-26T02:17:20;98502.88;;;0.99;93.85
22104;BME280;11218;48.886;9.426;2023-01-26T02:19:57;98498.75;;;0.96;93.10
22104;BME280;11218;48.886;9.426;2023-01-26T02:22:48;98496.09;;;0.96;92.98
22104;BME280;11218;48.886;9.426;2023-01-26T02:25:22;98487.97;;;0.98;93.51
22104;BME280;11218;48.886;9.426;2023-01-26T02:27:55;98501.06;;;0.99;92.78
22104;BME280;11218;48.886;9.426;2023-01-26T02:30:24;98489.81;;;0.97;93.97
22104;BME280;11218;48.886;9.426;2023-01-26T02:32:53;98490.09;;;1.03;94.11
22104;BME280;11218;48.886;9.426;2023-01-26T02:35:22;98473.25;;;0.95;93.87
22104;BME280;11218;48.886;9.426;2023-01-26T02:37:50;98467.66;;;0.90;93.33
22104;BME280;11218;48.886;9.426;2023-01-26T02:40:25;98474.25;;;0.94;94.60
22104;BME280;11218;48.886;9.426;2023-01-26T02:42:58;98465.59;;;1.01;94.35
22104;BME280;11218;48.886;9.426;2023-01-26T02:45:26;98466.59;;;0.99;93.73
22104;BME280;11218;48.886;9.426;2023-01-26T02:47:58;98464.66;;;0.93;93.25
22104;BME280;11218;48.886;9.426;2023-01-26T02:50:30;98449.25;;;0.97;94.28
22104;BME280;11218;48.886;9.426;2023-01-26T02:52:58;98464.38;;;0.88;94.07
22104;BME280;11218;48.886;9.426;2023-01-26T02:55:27;98456.50;;;0.80;94.37
22104;BME280;11218;48.886;9.426;2023-01-26T02:57:56;98455.84;;;0.78;94.21
22104;BME280;11218;48.886;9.426;2023-01-26T03:00:28;98452.09;;;0.73;95.39
22104;BME280;11218;48.886;9.426;2023-01-26T03:02:58;98455.75;;;0.72;94.75
22104;BME280;11218;48.886;9.426;2023-01-26T03:05:27;98448.34;;;0.67;95.10
22104;BME280;11218;48.886;9.426;2023-01-26T03:07:56;98447.16;;;0.70;94.63
22104;BME280;11218;48.886;9.426;2023-01-26T03:10:24;98446.63;;;0.74;95.78
22104;BME280;11218;48.886;9.426;2023-01-26T03:12:52;98455.19;;;0.76;95.11
22104;BME280;11218;48.886;9.426;2023-01-26T03:15:21;98445.59;;;0.75;95.42
22104;BME280;11218;48.886;9.426;2023-01-26T03:18:09;98439.03;;;0.71;94.73
22104;BME280;11218;48.886;9.426;2023-01-26T03:20:55;98430.63;;;0.68;94.90
22104;BME280;11218;48.886;9.426;2023-01-26T03:23:42;98425.16;;;0.69;94.71
22104;BME280;11218;48.886;9.426;2023-01-26T03:26:27;98426.97;;;0.69;95.76
22104;BME280;11218;48.886;9.426;2023-01-26T03:29:13;98436.75;;;0.68;95.84
22104;BME280;11218;48.886;9.426;2023-01-26T03:31:41;98433.16;;;0.61;94.69
22104;BME280;11218;48.886;9.426;2023-01-26T03:34:11;98432.84;;;0.56;95.39
22104;BME280;11218;48.886;9.426;2023-01-26T03:36:39;98431.69;;;0.58;95.82
22104;BME280;11218;48.886;9.426;2023-01-26T03:39:08;98427.38;;;0.57;95.76
22104;BME280;11218;48.886;9.426;2023-01-26T03:41:57;98432.22;;;0.54;96.37
22104;BME280;11218;48.886;9.426;2023-01-26T03:44:43;98424.09;;;0.55;96.25
22104;BME280;11218;48.886;9.426;2023-01-26T03:47:30;98433.50;;;0.58;95.66
22104;BME280;11218;48.886;9.426;2023-01-26T03:50:18;98431.50;;;0.60;96.21
22104;BME280;11218;48.886;9.426;2023-01-26T03:53:11;98432.50;;;0.59;95.18
22104;BME280;11218;48.886;9.426;2023-01-26T03:55:58;98428.03;;;0.59;95.72
22104;BME280;11218;48.886;9.426;2023-01-26T03:58:49;98432.69;;;0.57;95.58
22104;BME280;11218;48.886;9.426;2023-01-26T04:01:19;98438.28;;;0.62;95.35
22104;BME280;11218;48.886;9.426;2023-01-26T04:03:53;98438.50;;;0.53;95.38
22104;BME280;11218;48.886;9.426;2023-01-26T04:06:42;98435.56;;;0.48;95.62
22104;BME280;11218;48.886;9.426;2023-01-26T04:09:28;98436.91;;;0.44;96.60
22104;BME280;11218;48.886;9.426;2023-01-26T04:12:01;98437.78;;;0.36;95.84
22104;BME280;11218;48.886;9.426;2023-01-26T04:14:29;98430.66;;;0.37;96.42
22104;BME280;11218;48.886;9.426;2023-01-26T04:17:16;98427.19;;;0.36;96.06
22104;BME280;11218;48.886;9.426;2023-01-26T04:20:04;98429.38;;;0.32;96.79
22104;BME280;11218;48.886;9.426;2023-01-26T04:22:51;98426.03;;;0.39;96.15
22104;BME280;11218;48.886;9.426;2023-01-26T04:25:21;98426.19;;;0.37;95.47
22104;BME280;11218;48.886;9.426;2023-01-26T04:27:50;98426.72;;;0.32;95.45
22104;BME280;11218;48.886;9.426;2023-01-26T04:30:18;98427.38;;;0.35;95.58
22104;BME280;11218;48.886;9.426;2023-01-26T04:32:47;98418.31;;;0.29;95.22
22104;BME280;11218;48.886;9.426;2023-01-26T04:35:17;98418.47;;;0.27;96.63
22104;BME280;11218;48.886;9.426;2023-01-26T04:37:46;98422.44;;;0.31;96.69
22104;BME280;11218;48.886;9.426;2023-01-26T04:40:17;98409.31;;;0.38;95.85
22104;BME280;11218;48.886;9.426;2023-01-26T04:42:46;98411.44;;;0.43;95.74
22104;BME280;11218;48.886;9.426;2023-01-26T04:45:14;98410.59;;;0.42;95.03
22104;BME280;11218;48.886;9.426;2023-01-26T04:47:42;98406.66;;;0.38;95.68
22104;BME280;11218;48.886;9.426;2023-01-26T04:50:12;98413.25;;;0.42;96.30
22104;BME280;11218;48.886;9.426;2023-01-26T04:52:43;98408.97;;;0.41;94.89
22104;BME280;11218;48.886;9.426;2023-01-26T04:55:11;98407.84;;;0.36;95.35
22104;BME280;11218;48.886;9.426;2023-01-26T04:57:41;98406.31;;;0.41;96.41
22104;BME280;11218;48.886;9.426;2023-01-26T05:00:10;98404.50;;;0.42;95.48
22104;BME280;11218;48.886;9.426;2023-01-26T05:02:40;98410.13;;;0.39;95.45
22104;BME280;11218;48.886;9.426;2023-01-26T05:05:08;98408.50;;;0.38;95.78
22104;BME280;11218;48.886;9.426;2023-01-26T05:07:36;98415.59;;;0.37;95.58
22104;BME280;11218;48.886;9.426;2023-01-26T05:10:05;98410.50;;;0.36;96.21
22104;BME280;11218;48.886;9.426;2023-01-26T05:12:34;98401.59;;;0.28;96.28
22104;BME280;11218;48.886;9.426;2023-01-26T05:15:06;98412.19;;;0.28;96.66
22104;BME280;11218;48.886;9.426;2023-01-26T05:17:34;98408.00;;;0.34;96.53
22104;BME280;11218;48.886;9.426;2023-01-26T05:20:03;98405.53;;;0.32;97.11
22104;BME280;11218;48.886;9.426;2023-01-26T05:22:33;98400.06;;;0.34;96.49
22104;BME280;11218;48.886;9.426;2023-01-26T05:25:02;98404.91;;;0.30;95.94
22104;BME280;11218;48.886;9.426;2023-01-26T05:27:30;98408.66;;;0.36;97.19
22104;BME280;11218;48.886;9.426;2023-01-26T05:29:58;98410.50;;;0.36;96.33
22104;BME280;11218;48.886;9.426;2023-01-26T05:32:29;98412.13;;;0.37;97.41
22104;BME280;11218;48.886;9.426;2023-01-26T05:34:58;98409.00;;;0.33;96.88
22104;BME280;11218;48.886;9.426;2023-01-26T05:37:27;98415.44;;;0.39;96.85
22104;BME280;11218;48.886;9.426;2023-01-26T05:39:55;98414.13;;;0.35;96.05
22104;BME280;11218;48.886;9.426;2023-01-26T05:42:24;98421.44;;;0.32;95.17
22104;BME280;11218;48.886;9.426;2023-01-26T05:44:52;98415.34;;;0.24;95.10
22104;BME280;11218;48.886;9.426;2023-01-26T05:47:21;98414.84;;;0.28;95.77
22104;BME280;11218;48.886;9.426;2023-01-26T05:49:50;98413.75;;;0.15;96.58
22104;BME280;11218;48.886;9.426;2023-01-26T05:52:20;98419.19;;;0.21;96.56
22104;BME280;11218;48.886;9.426;2023-01-26T05:54:48;98424.47;;;0.21;96.68
22104;BME280;11218;48.886;9.426;2023-01-26T05:57:17;98424.00;;;0.18;96.66
22104;BME280;11218;48.886;9.426;2023-01-26T05:59:45;98424.66;;;0.20;95.77
22104;BME280;11218;48.886;9.426;2023-01-26T06:02:14;98424.47;;;0.21;96.09
22104;BME280;11218;48.886;9.426;2023-01-26T06:04:42;98427.81;;;0.15;96.69
22104;BME280;11218;48.886;9.426;2023-01-26T06:07:12;98424.16;;;0.16;96.64
22104;BME280;11218;48.886;9.426;2023-01-26T06:09:41;98426.19;;;0.06;95.61
22104;BME280;11218;48.886;9.426;2023-01-26T06:12:13;98425.69;;;0.11;96.79
22104;BME280;11218;48.886;9.426;2023-01-26T06:14:42;98425.38;;;0.06;96.62
22104;BME280;11218;48.886;9.426;2023-01-26T06:17:13;98413.97;;;0.05;97.14
22104;BME280;11218;48.886;9.426;2023-01-26T06:19:43;98420.88;;;0.14;96.29
22104;BME280;11218;48.886;9.426;2023-01-26T06:22:13;98416.41;;;0.15;96.16
22104;BME280;11218;48.886;9.426;2023-01-26T06:24:41;98420.00;;;0.22;96.84
22104;BME280;11218;48.886;9.426;2023-01-26T06:27:12;98422.66;;;0.22;97.01
22104;BME280;11218;48.886;9.426;2023-01-26T06:29:41;98421.94;;;0.28;96.91
22104;BME280;11218;48.886;9.426;2023-01-26T06:32:10;98421.91;;;0.36;96.77
22104;BME280;11218;48.886;9.426;2023-01-26T06:34:39;98421.78;;;0.29;95.43
22104;BME280;11218;48.886;9.426;2023-01-26T06:37:07;98421.78;;;0.29;96.53
22104;BME280;11218;48.886;9.426;2023-01-26T06:39:37;98416.97;;;0.33;95.30
22104;BME280;11218;48.886;9.426;2023-01-26T06:42:06;98420.78;;;0.30;96.34
22104;BME280;11218;48.886;9.426;2023-01-26T06:44:37;98424.06;;;0.32;96.10
22104;BME280;11218;48.886;9.426;2023-01-26T06:47:06;98427.84;;;0.38;95.68
22104;BME280;11218;48.886;9.426;2023-01-26T06:49:34;98427.84;;;0.38;95.52
22104;BME280;11218;48.886;9.426;2023-01-26T06:52:03;98422.72;;;0.37;94.79
22104;BME280;11218;48.886;9.426;2023-01-26T06:54:32;98423.03;;;0.42;95.25
22104;BME280;11218;48.886;9.426;2023-01-26T06:57:01;98416.72;;;0.43;95.24
22104;BME280;11218;48.886;9.426;2023-01-26T06:59:30;98421.03;;;0.44;94.78
22104;BME280;11218;48.886;9.426;2023-01-26T07:01:59;98423.97;;;0.49;95.10
22104;BME280;11218;48.886;9.426;2023-01-26T07:04:27;98420.56;;;0.40;94.49
22104;BME280;11218;48.886;9.426;2023-01-26T07:06:55;98420.06;;;0.37;93.62
22104;BME280;11218;48.886;9.426;2023-01-26T07:09:23;98420.13;;;0.28;92.70
22104;BME280;11218;48.886;9.426;2023-01-26T07:11:51;98425.41;;;0.28;92.64
22104;BME280;11218;48.886;9.426;2023-01-26T07:14:21;98423.47;;;0.22;92.64
22104;BME280;11218;48.886;9.426;2023-01-26T07:16:49;98428.13;;;0.20;92.58
22104;BME280;11218;48.886;9.426;2023-01-26T07:19:18;98430.31;;;0.09;93.33
22104;BME280;11218;48.886;9.426;2023-01-26T07:21:46;98436.44;;;0.09;93.36
22104;BME280;11218;48.886;9.426;2023-01-26T07:24:15;98431.81;;;0.11;93.44
22104;BME280;11218;48.886;9.426;2023-01-26T07:26:43;98442.53;;;0.18;93.07
22104;BME280;11218;48.886;9.426;2023-01-26T07:29:11;98443.81;;;0.22;93.93
22104;BME280;11218;48.886;9.426;2023-01-26T07:31:40;98439.81;;;0.26;93.40
22104;BME280;11218;48.886;9.426;2023-01-26T07:34:10;98445.59;;;0.29;93.22
22104;BME280;11218;48.886;9.426;2023-01-26T07:36:39;98437.53;;;0.23;92.54
22104;BME280;11218;48.886;9.426;2023-01-26T07:39:07;98443.81;;;0.22;92.34
22104;BME280;11218;48.886;9.426;2023-01-26T07:41:35;98434.22;;;0.21;92.95
22104;BME280;11218;48.886;9.426;2023-01-26T07:44:03;98440.56;;;0.12;92.57
22104;BME280;11218;48.886;9.426;2023-01-26T07:46:33;98439.22;;;0.16;92.59
22104;BME280;11218;48.886;9.426;2023-01-26T07:49:03;98439.09;;;0.09;93.61
22104;BME280;11218;48.886;9.426;2023-01-26T07:51:32;98440.38;;;0.13;93.17
22104;BME280;11218;48.886;9.426;2023-01-26T07:54:00;98442.22;;;0.13;93.04
22104;BME280;11218;48.886;9.426;2023-01-26T07:56:29;98440.69;;;0.18;91.91
22104;BME280;11218;48.886;9.426;2023-01-26T07:58:57;98445.34;;;0.16;91.75
22104;BME280;11218;48.886;9.426;2023-01-26T08:01:29;98445.34;;;0.16;93.55
22104;BME280;11218;48.886;9.426;2023-01-26T08:03:57;98442.38;;;0.11;92.93
22104;BME280;11218;48.886;9.426;2023-01-26T08:06:27;98432.94;;;0.17;92.94
22104;BME280;11218;48.886;9.426;2023-01-26T08:08:55;98434.41;;;0.19;93.18
22104;BME280;11218;48.886;9.426;2023-01-26T08:11:23;98439.91;;;0.10;93.32
22104;BME280;11218;48.886;9.426;2023-01-26T08:13:52;98439.41;;;0.14;93.54
22104;BME280;11218;48.886;9.426;2023-01-26T08:16:21;98439.19;;;0.24;93.06
22104;BME280;11218;48.886;9.426;2023-01-26T08:18:49;98442.66;;;0.24;92.71
22104;BME280;11218;48.886;9.426;2023-01-26T08:21:18;98432.06;;;0.24;91.97
22104;BME280;11218;48.886;9.426;2023-01-26T08:23:49;98432.59;;;0.20;92.55
22104;BME280;11218;48.886;9.426;2023-01-26T08:26:18;98432.06;;;0.24;92.36
22104;BME280;11218;48.886;9.426;2023-01-26T08:28:47;98433.72;;;0.25;92.63
22104;BME280;11218;48.886;9.426;2023-01-26T08:31:17;98422.59;;;0.30;93.52
22104;BME280;11218;48.886;9.426;2023-01-26T08:33:47;98431.84;;;0.34;93.53
22104;BME280;11218;48.886;9.426;2023-01-26T08:36:18;98425.53;;;0.35;94.88
22104;BME280;11218;48.886;9.426;2023-01-26T08:38:49;98432.50;;;0.36;94.56
22104;BME280;11218;48.886;9.426;2023-01-26T08:41:18;98433.97;;;0.39;93.87
22104;BME280;11218;48.886;9.426;2023-01-26T08:43:46;98435.47;;;0.33;92.54
22104;BME280;11218;48.886;9.426;2023-01-26T08:46:14;98430.84;;;0.35;93.55
22104;BME280;11218;48.886;9.426;2023-01-26T08:48:42;98423.72;;;0.36;93.30
22104;BME280;11218;48.886;9.426;2023-01-26T08:51:10;98419.78;;;0.31;93.32
22104;BME280;11218;48.886;9.426;2023-01-26T08:53:38;98424.53;;;0.36;93.44
22104;BME280;11218;48.886;9.426;2023-01-26T08:56:11;98417.31;;;0.30;93.00
22104;BME280;11218;48.886;9.426;2023-01-26T08:58:40;98426.06;;;0.30;93.01
22104;BME280;11218;48.886;9.426;2023-01-26T09:01:11;98421.94;;;0.28;92.47
22104;BME280;11218;48.886;9.426;2023-01-26T09:03:40;98414.84;;;0.28;92.47
22104;BME280;11218;48.886;9.426;2023-01-26T09:06:10;98417.97;;;0.32;92.77
22104;BME280;11218;48.886;9.426;2023-01-26T09:08:39;98423.38;;;0.39;91.25
22104;BME280;11218;48.886;9.426;2023-01-26T09:11:09;98421.25;;;0.34;91.52
22104;BME280;11218;48.886;9.426;2023-01-26T09:13:38;98419.31;;;0.28;90.90
22104;BME280;11218;48.886;9.426;2023-01-26T09:16:12;98416.47;;;0.29;91.07
22104;BME280;11218;48.886;9.426;2023-01-26T09:18:42;98423.59;;;0.29;91.00
22104;BME280;11218;48.886;9.426;2023-01-26T09:21:10;98421.66;;;0.23;90.95
22104;BME280;11218;48.886;9.426;2023-01-26T09:23:38;98418.34;;;0.21;91.01
22104;BME280;11218;48.886;9.426;2023-01-26T09:26:06;98419.00;;;0.23;91.26
22104;BME280;11218;48.886;9.426;2023-01-26T09:28:36;98419.19;;;0.21;91.42
22104;BME280;11218;48.886;9.426;2023-01-26T09:31:05;98432.75;;;0.18;89.88
22104;BME280;11218;48.886;9.426;2023-01-26T09:33:34;98433.22;;;0.22;90.39
22104;BME280;11218;48.886;9.426;2023-01-26T09:36:03;98422.13;;;0.26;91.28
22104;BME280;11218;48.886;9.426;2023-01-26T09:38:32;98427.41;;;0.26;91.76
22104;BME280;11218;48.886;9.426;2023-01-26T09:41:05;98431.19;;;0.32;91.58
22104;BME280;11218;48.886;9.426;2023-01-26T09:43:38;98436.31;;;0.33;90.46
22104;BME280;11218;48.886;9.426;2023-01-26T09:46:18;98439.97;;;0.32;90.99
22104;BME280;11218;48.886;9.426;2023-01-26T09:48:56;98435.00;;;0.29;90.62
22104;BME280;11218;48.886;9.426;2023-01-26T09:51:32;98432.84;;;0.33;90.84
22104;BME280;11218;48.886;9.426;2023-01-26T09:54:05;98433.25;;;0.45;90.93
22104;BME280;11218;48.886;9.426;2023-01-26T09:56:42;98433.44;;;0.43;90.66
22104;BME280;11218;48.886;9.426;2023-01-26T09:59:19;98429.50;;;0.39;90.78
22104;BME280;11218;48.886;9.426;2023-01-26T10:01:55;98421.38;;;0.41;91.75
22104;BME280;11218;48.886;9.426;2023-01-26T10:04:30;98424.19;;;0.39;92.01
22104;BME280;11218;48.886;9.426;2023-01-26T10:07:07;98425.78;;;0.48;91.87
22104;BME280;11218;48.886;9.426;2023-01-26T10:09:37;98423.09;;;0.56;90.98
22104;BME280;11218;48.886;9.426;2023-01-26T10:12:07;98427.75;;;0.54;89.42
22104;BME280;11218;48.886;9.426;2023-01-26T10:14:47;98429.25;;;0.49;89.54
22104;BME280;11218;48.886;9.426;2023-01-26T10:17:18;98428.91;;;0.52;90.24
22104;BME280;11218;48.886;9.426;2023-01-26T10:19:51;98421.91;;;0.59;89.78
22104;BME280;11218;48.886;9.426;2023-01-26T10:22:24;98423.91;;;0.57;89.14
22104;BME280;11218;48.886;9.426;2023-01-26T10:24:56;98420.78;;;0.53;90.93
22104;BME280;11218;48.886;9.426;2023-01-26T10:27:26;98418.56;;;0.65;90.72
22104;BME280;11218;48.886;9.426;2023-01-26T10:29:56;98424.69;;;0.65;89.39
22104;BME280;11218;48.886;9.426;2023-01-26T10:32:24;98434.97;;;0.60;88.38
22104;BME280;11218;48.886;9.426;2023-01-26T10:34:53;98425.25;;;0.53;87.84
22104;BME280;11218;48.886;9.426;2023-01-26T10:37:23;98428.63;;;0.47;89.75
22104;BME280;11218;48.886;9.426;2023-01-26T10:39:59;98430.44;;;0.46;89.46
22104;BME280;11218;48.886;9.426;2023-01-26T10:42:28;98418.19;;;0.45;89.20
22104;BME280;11218;48.886;9.426;2023-01-26T10:45:01;98422.84;;;0.43;89.48
22104;BME280;11218;48.886;9.426;2023-01-26T10:47:31;98423.66;;;0.44;90.85
22104;BME280;11218;48.886;9.426;2023-01-26T10:50:14;98415.91;;;0.42;90.48
22104;BME280;11218;48.886;9.426;2023-01-26T10:52:57;98424.03;;;0.41;89.97
22104;BME280;11218;48.886;9.426;2023-01-26T10:55:27;98425.66;;;0.42;89.96
22104;BME280;11218;48.886;9.426;2023-01-26T10:57:55;98422.84;;;0.43;91.12
22104;BME280;11218;48.886;9.426;2023-01-26T11:00:28;98431.13;;;0.40;90.63
22104;BME280;11218;48.886;9.426;2023-01-26T11:03:03;98421.56;;;0.39;90.34
22104;BME280;11218;48.886;9.426;2023-01-26T11:05:33;98420.91;;;0.37;90.41
22104;BME280;11218;48.886;9.426;2023-01-26T11:08:02;98416.59;;;0.36;91.51
22104;BME280;11218;48.886;9.426;2023-01-26T11:10:34;98414.97;;;0.35;91.23
22104;BME280;11218;48.886;9.426;2023-01-26T11:13:14;98408.44;;;0.46;91.45
22104;BME280;11218;48.886;9.426;2023-01-26T11:15:47;98398.84;;;0.45;90.16
22104;BME280;11218;48.886;9.426;2023-01-26T11:18:22;98402.31;;;0.45;91.12
22104;BME280;11218;48.886;9.426;2023-01-26T11:20:58;98398.91;;;0.37;90.70
22104;BME280;11218;48.886;9.426;2023-01-26T11:23:41;98407.13;;;0.42;90.48
22104;BME280;11218;48.886;9.426;2023-01-26T11:26:40;98401.84;;;0.42;91.60
22104;BME280;11218;48.886;9.426;2023-01-26T11:32:21;98401.97;;;0.48;90.15
22104;BME280;11218;48.886;9.426;2023-01-26T11:35:06;98394.84;;;0.49;90.37
22104;BME280;11218;48.886;9.426;2023-01-26T11:37:42;98401.97;;;0.48;89.91
22104;BME280;11218;48.886;9.426;2023-01-26T11:40:20;98405.13;;;0.44;90.82
22104;BME280;11218;48.886;9.426;2023-01-26T11:43:02;98393.91;;;0.42;90.22
22104;BME280;11218;48.886;9.426;2023-01-26T11:45:49;98382.38;;;0.57;91.31
22104;BME280;11218;48.886;9.426;2023-01-26T11:48:35;98378.78;;;0.50;91.28
22104;BME280;11218;48.886;9.426;2023-01-26T11:51:13;98379.44;;;0.52;90.56
22104;BME280;11218;48.886;9.426;2023-01-26T11:53:57;98370.47;;;0.53;90.07
22104;BME280;11218;48.886;9.426;2023-01-26T11:56:38;98373.13;;;0.53;90.88
22104;BME280;11218;48.886;9.426;2023-01-26T11:59:13;98359.47;;;0.64;90.18
22104;BME280;11218;48.886;9.426;2023-01-26T12:01:48;98358.00;;;0.62;89.73
22104;BME280;11218;48.886;9.426;2023-01-26T12:04:21;98354.88;;;0.58;88.90
22104;BME280;11218;48.886;9.426;2023-01-26T12:06:53;98353.25;;;0.57;90.08
22104;BME280;11218;48.886;9.426;2023-01-26T12:09:29;98347.59;;;0.60;90.07
22104;BME280;11218;48.886;9.426;2023-01-26T12:12:03;98347.47;;;0.54;89.02
22104;BME280;11218;48.886;9.426;2023-01-26T12:14:37;98340.41;;;0.46;89.29
22104;BME280;11218;48.886;9.426;2023-01-26T12:17:23;98342.06;;;0.47;88.90
22104;BME280;11218;48.886;9.426;2023-01-26T12:19:57;98337.94;;;0.45;88.89
22104;BME280;11218;48.886;9.426;2023-01-26T12:22:32;98337.47;;;0.41;87.77
22104;BME280;11218;48.886;9.426;2023-01-26T12:25:13;98343.13;;;0.38;87.74
22104;BME280;11218;48.886;9.426;2023-01-26T12:27:51;98343.53;;;0.27;88.45
22104;BME280;11218;48.886;9.426;2023-01-26T12:30:27;98335.72;;;0.33;88.88
22104;BME280;11218;48.886;9.426;2023-01-26T12:32:58;98334.44;;;0.29;88.93
22104;BME280;11218;48.886;9.426;2023-01-26T12:35:40;98323.84;;;0.29;88.98
22104;BME280;11218;48.886;9.426;2023-01-26T12:38:13;98324.38;;;0.25;88.40
22104;BME280;11218;48.886;9.426;2023-01-26T12:40:53;98318.78;;;0.20;88.95
22104;BME280;11218;48.886;9.426;2023-01-26T12:43:37;98315.97;;;0.21;89.44
22104;BME280;11218;48.886;9.426;2023-01-26T12:46:08;98313.25;;;0.29;89.61
22104;BME280;11218;48.886;9.426;2023-01-26T12:48:42;98304.31;;;0.30;90.22
22104;BME280;11218;48.886;9.426;2023-01-26T12:51:19;98310.38;;;0.39;89.55
22104;BME280;11218;48.886;9.426;2023-01-26T12:53:53;98308.91;;;0.37;89.69
22104;BME280;11218;48.886;9.426;2023-01-26T12:56:26;98315.84;;;0.38;88.57
22104;BME280;11218;48.886;9.426;2023-01-26T12:58:59;98307.25;;;0.36;88.95
22104;BME280;11218;48.886;9.426;2023-01-26T13:01:37;98307.13;;;0.29;88.97
22104;BME280;11218;48.886;9.426;2023-01-26T13:04:08;98308.97;;;0.28;89.32
22104;BME280;11218;48.886;9.426;2023-01-26T13:06:39;98310.97;;;0.26;89.40
22104;BME280;11218;48.886;9.426;2023-01-26T13:09:19;98307.50;;;0.26;88.91
22104;BME280;11218;48.886;9.426;2023-01-26T13:11:51;98307.50;;;0.26;89.03
22104;BME280;11218;48.886;9.426;2023-01-26T13:14:37;98307.19;;;0.21;89.14
22104;BME280;11218;48.886;9.426;2023-01-26T13:20:43;98299.09;;;0.22;88.91
22104;BME280;11218;48.886;9.426;2023-01-26T13:26:50;98297.56;;;0.28;89.00
22104;BME280;11218;48.886;9.426;2023-01-26T13:29:27;98292.44;;;0.26;88.82
22104;BME280;11218;48.886;9.426;2023-01-26T13:34:45;98295.72;;;0.28;89.23
22104;BME280;11218;48.886;9.426;2023-01-26T13:37:20;98292.44;;;0.26;88.11
22104;BME280;11218;48.886;9.426;2023-01-26T13:39:53;98299.19;;;0.29;88.72
22104;BME280;11218;48.886;9.426;2023-01-26T13:42:26;98294.53;;;0.31;88.32
22104;BME280;11218;48.886;9.426;2023-01-26T13:44:58;98296.19;;;0.32;88.72
22104;BME280;11218;48.886;9.426;2023-01-26T13:47:34;98304.50;;;0.29;88.37
22104;BME280;11218;48.886;9.426;2023-01-26T13:50:27;98301.84;;;0.29;88.91